sensor_id;sensor_type;location;lat;lon;timestamp;pressure;altitude;pressure_sealevel;temperature;humidity
69223;BME280;56514;51.816;-0.026;2023-04-25T00:00:08;100968.91;;;5.02;70.15
69223;BME280;56514;51.816;-0.026;2023-04-25T00:02:54;100971.63;;;4.99;70.75
69223;BME280;56514;51.816;-0.026;2023-04-25T00:05:41;100978.69;;;4.97;70.39
69223;BME280;56514;51.816;-0.026;2023-04-25T00:08:26;100982.28;;;4.95;70.46
69223;BME280;56514;51.816;-0.026;2023-04-25T00:11:36;100979.75;;;4.93;70.18
69223;BME280;56514;51.816;-0.026;2023-04-25T00:14:45;100980.75;;;4.89;70.19
69223;BME280;56514;51.816;-0.026;2023-04-25T00:17:55;100987.88;;;4.86;70.41
69223;BME280;56514;51.816;-0.026;2023-04-25T00:21:05;100990.69;;;4.81;70.34
69223;BME280;56514;51.816;-0.026;2023-04-25T00:24:15;100990.81;;;4.78;70.48
69223;BME280;56514;51.816;-0.026;2023-04-25T00:27:24;100987.47;;;4.75;70.68
69223;BME280;56514;51.816;-0.026;2023-04-25T00:30:33;100993.69;;;4.71;70.66
69223;BME280;56514;51.816;-0.026;2023-04-25T00:33:42;100992.19;;;4.65;70.34
69223;BME280;56514;51.816;-0.026;2023-04-25T00:36:28;100987.09;;;4.62;70.63
69223;BME280;56514;51.816;-0.026;2023-04-25T00:39:13;100982.78;;;4.61;70.48
69223;BME280;56514;51.816;-0.026;2023-04-25T00:41:58;100988.97;;;4.59;70.27
69223;BME280;56514;51.816;-0.026;2023-04-25T00:44:43;100993.47;;;4.55;70.70
69223;BME280;56514;51.816;-0.026;2023-04-25T00:47:30;100990.97;;;4.52;70.62
69223;BME280;56514;51.816;-0.026;2023-04-25T00:50:15;101001.56;;;4.49;70.58
69223;BME280;56514;51.816;-0.026;2023-04-25T00:53:00;100993.84;;;4.46;70.54
69223;BME280;56514;51.816;-0.026;2023-04-25T00:55:47;100988.63;;;4.46;70.22
69223;BME280;56514;51.816;-0.026;2023-04-25T00:58:32;100986.19;;;4.42;70.69
69223;BME280;56514;51.816;-0.026;2023-04-25T01:01:17;100988.06;;;4.38;70.34
69223;BME280;56514;51.816;-0.026;2023-04-25T01:04:03;100995.09;;;4.36;70.89
69223;BME280;56514;51.816;-0.026;2023-04-25T01:06:48;100992.59;;;4.33;71.03
69223;BME280;56514;51.816;-0.026;2023-04-25T01:09:33;101003.09;;;4.32;70.74
69223;BME280;56514;51.816;-0.026;2023-04-25T01:12:19;100996.34;;;4.26;71.14
69223;BME280;56514;51.816;-0.026;2023-04-25T01:15:04;100990.28;;;4.26;70.79
69223;BME280;56514;51.816;-0.026;2023-04-25T01:17:50;100997.34;;;4.22;70.72
69223;BME280;56514;51.816;-0.026;2023-04-25T01:20:37;100992.25;;;4.19;70.82
69223;BME280;56514;51.816;-0.026;2023-04-25T01:23:23;100997.66;;;4.15;71.33
69223;BME280;56514;51.816;-0.026;2023-04-25T01:26:10;100997.75;;;4.12;70.81
69223;BME280;56514;51.816;-0.026;2023-04-25T01:28:56;101005.66;;;4.10;70.54
69223;BME280;56514;51.816;-0.026;2023-04-25T01:31:41;101014.56;;;4.05;70.83
69223;BME280;56514;51.816;-0.026;2023-04-25T01:34:27;101016.31;;;4.04;71.00
69223;BME280;56514;51.816;-0.026;2023-04-25T01:37:31;101018.28;;;3.99;71.11
69223;BME280;56514;51.816;-0.026;2023-04-25T01:40:40;101017.56;;;3.94;70.76
69223;BME280;56514;51.816;-0.026;2023-04-25T01:43:45;101015.06;;;3.91;71.56
69223;BME280;56514;51.816;-0.026;2023-04-25T01:46:54;101012.41;;;3.93;71.19
69223;BME280;56514;51.816;-0.026;2023-04-25T01:50:04;101022.09;;;3.89;71.16
69223;BME280;56514;51.816;-0.026;2023-04-25T01:52:49;101017.00;;;3.86;71.25
69223;BME280;56514;51.816;-0.026;2023-04-25T01:55:35;101020.50;;;3.85;71.21
69223;BME280;56514;51.816;-0.026;2023-04-25T01:58:19;101015.41;;;3.82;71.12
69223;BME280;56514;51.816;-0.026;2023-04-25T02:01:05;101031.06;;;3.82;70.82
69223;BME280;56514;51.816;-0.026;2023-04-25T02:03:49;101025.09;;;3.79;70.79
69223;BME280;56514;51.816;-0.026;2023-04-25T02:06:34;101013.06;;;3.75;71.35
69223;BME280;56514;51.816;-0.026;2023-04-25T02:09:19;101020.94;;;3.73;71.47
69223;BME280;56514;51.816;-0.026;2023-04-25T02:12:04;101021.00;;;3.72;71.59
69223;BME280;56514;51.816;-0.026;2023-04-25T02:14:50;101019.28;;;3.71;71.48
69223;BME280;56514;51.816;-0.026;2023-04-25T02:17:34;101018.44;;;3.70;70.97
69223;BME280;56514;51.816;-0.026;2023-04-25T02:20:24;101027.31;;;3.64;71.72
69223;BME280;56514;51.816;-0.026;2023-04-25T02:23:09;101023.88;;;3.64;71.77
69223;BME280;56514;51.816;-0.026;2023-04-25T02:25:53;101033.50;;;3.62;71.72
69223;BME280;56514;51.816;-0.026;2023-04-25T02:28:39;101037.03;;;3.61;71.70
69223;BME280;56514;51.816;-0.026;2023-04-25T02:31:26;101033.63;;;3.59;72.12
69223;BME280;56514;51.816;-0.026;2023-04-25T02:34:11;101031.06;;;3.57;71.51
69223;BME280;56514;51.816;-0.026;2023-04-25T02:36:56;101027.66;;;3.55;71.66
69223;BME280;56514;51.816;-0.026;2023-04-25T02:39:40;101036.44;;;3.53;71.58
69223;BME280;56514;51.816;-0.026;2023-04-25T02:42:26;101026.06;;;3.51;71.61
69223;BME280;56514;51.816;-0.026;2023-04-25T02:45:11;101028.81;;;3.47;72.00
69223;BME280;56514;51.816;-0.026;2023-04-25T02:47:56;101031.53;;;3.44;71.68
69223;BME280;56514;51.816;-0.026;2023-04-25T02:50:41;101029.81;;;3.43;71.76
69223;BME280;56514;51.816;-0.026;2023-04-25T02:53:26;101023.88;;;3.39;71.83
69223;BME280;56514;51.816;-0.026;2023-04-25T02:56:35;101026.63;;;3.35;72.03
69223;BME280;56514;51.816;-0.026;2023-04-25T02:59:44;101029.41;;;3.30;71.68
69223;BME280;56514;51.816;-0.026;2023-04-25T03:02:54;101034.66;;;3.29;71.78
69223;BME280;56514;51.816;-0.026;2023-04-25T03:06:03;101031.34;;;3.24;71.88
69223;BME280;56514;51.816;-0.026;2023-04-25T03:09:13;101036.66;;;3.21;72.13
69223;BME280;56514;51.816;-0.026;2023-04-25T03:12:22;101041.13;;;3.17;72.08
69223;BME280;56514;51.816;-0.026;2023-04-25T03:15:31;101040.31;;;3.15;72.44
69223;BME280;56514;51.816;-0.026;2023-04-25T03:18:40;101046.44;;;3.14;72.08
69223;BME280;56514;51.816;-0.026;2023-04-25T03:21:49;101047.38;;;3.12;72.07
69223;BME280;56514;51.816;-0.026;2023-04-25T03:24:34;101043.97;;;3.10;72.14
69223;BME280;56514;51.816;-0.026;2023-04-25T03:27:19;101044.88;;;3.09;72.15
69223;BME280;56514;51.816;-0.026;2023-04-25T03:30:05;101046.56;;;3.10;71.87
69223;BME280;56514;51.816;-0.026;2023-04-25T03:32:51;101048.38;;;3.08;72.07
69223;BME280;56514;51.816;-0.026;2023-04-25T03:35:35;101057.09;;;3.07;72.05
69223;BME280;56514;51.816;-0.026;2023-04-25T03:38:20;101057.16;;;3.05;72.58
69223;BME280;56514;51.816;-0.026;2023-04-25T03:41:05;101052.91;;;3.03;72.76
69223;BME280;56514;51.816;-0.026;2023-04-25T03:43:49;101055.56;;;3.01;72.58
69223;BME280;56514;51.816;-0.026;2023-04-25T03:46:34;101057.31;;;3.01;73.25
69223;BME280;56514;51.816;-0.026;2023-04-25T03:49:19;101065.06;;;3.02;72.75
69223;BME280;56514;51.816;-0.026;2023-04-25T03:52:04;101062.50;;;3.01;73.15
69223;BME280;56514;51.816;-0.026;2023-04-25T03:54:48;101061.75;;;2.97;73.18
69223;BME280;56514;51.816;-0.026;2023-04-25T03:57:33;101058.31;;;2.97;72.89
69223;BME280;56514;51.816;-0.026;2023-04-25T04:00:18;101053.19;;;2.94;72.81
69223;BME280;56514;51.816;-0.026;2023-04-25T04:03:03;101049.78;;;2.92;73.09
69223;BME280;56514;51.816;-0.026;2023-04-25T04:05:48;101060.16;;;2.93;72.33
69223;BME280;56514;51.816;-0.026;2023-04-25T04:08:33;101074.31;;;2.85;72.98
69223;BME280;56514;51.816;-0.026;2023-04-25T04:11:19;101078.72;;;2.83;73.09
69223;BME280;56514;51.816;-0.026;2023-04-25T04:14:06;101075.25;;;2.82;72.73
69223;BME280;56514;51.816;-0.026;2023-04-25T04:16:51;101084.03;;;2.80;72.68
69223;BME280;56514;51.816;-0.026;2023-04-25T04:19:37;101083.13;;;2.81;72.63
69223;BME280;56514;51.816;-0.026;2023-04-25T04:22:22;101094.50;;;2.78;72.88
69223;BME280;56514;51.816;-0.026;2023-04-25T04:25:07;101097.19;;;2.75;73.35
69223;BME280;56514;51.816;-0.026;2023-04-25T04:28:17;101099.03;;;2.72;72.98
69223;BME280;56514;51.816;-0.026;2023-04-25T04:31:22;101098.22;;;2.70;72.68
69223;BME280;56514;51.816;-0.026;2023-04-25T04:34:27;101098.22;;;2.70;73.20
69223;BME280;56514;51.816;-0.026;2023-04-25T04:37:36;101103.47;;;2.68;72.67
69223;BME280;56514;51.816;-0.026;2023-04-25T04:40:45;101108.66;;;2.68;72.78
69223;BME280;56514;51.816;-0.026;2023-04-25T04:43:54;101099.13;;;2.69;72.81
69223;BME280;56514;51.816;-0.026;2023-04-25T04:47:04;101111.13;;;2.73;72.71
69223;BME280;56514;51.816;-0.026;2023-04-25T04:50:15;101106.84;;;2.72;72.66
69223;BME280;56514;51.816;-0.026;2023-04-25T04:53:24;101102.53;;;2.71;73.16
69223;BME280;56514;51.816;-0.026;2023-04-25T04:56:35;101116.34;;;2.73;72.87
69223;BME280;56514;51.816;-0.026;2023-04-25T04:59:44;101124.13;;;2.74;72.90
69223;BME280;56514;51.816;-0.026;2023-04-25T05:02:55;101135.31;;;2.78;73.08
69223;BME280;56514;51.816;-0.026;2023-04-25T05:06:04;101130.91;;;2.80;72.64
69223;BME280;56514;51.816;-0.026;2023-04-25T05:09:14;101142.06;;;2.85;73.08
69223;BME280;56514;51.816;-0.026;2023-04-25T05:12:24;101138.47;;;2.89;72.96
69223;BME280;56514;51.816;-0.026;2023-04-25T05:15:09;101146.09;;;2.95;72.56
69223;BME280;56514;51.816;-0.026;2023-04-25T05:17:54;101152.94;;;2.97;72.13
69223;BME280;56514;51.816;-0.026;2023-04-25T05:20:39;101154.50;;;3.04;72.49
69223;BME280;56514;51.816;-0.026;2023-04-25T05:23:24;101150.91;;;3.07;72.42
69223;BME280;56514;51.816;-0.026;2023-04-25T05:26:09;101163.84;;;3.10;72.38
69223;BME280;56514;51.816;-0.026;2023-04-25T05:28:58;101169.78;;;3.15;71.86
69223;BME280;56514;51.816;-0.026;2023-04-25T05:31:44;101165.41;;;3.15;72.06
69223;BME280;56514;51.816;-0.026;2023-04-25T05:34:29;101173.91;;;3.22;72.06
69223;BME280;56514;51.816;-0.026;2023-04-25T05:37:13;101182.44;;;3.27;72.17
69223;BME280;56514;51.816;-0.026;2023-04-25T05:39:58;101193.59;;;3.32;72.15
69223;BME280;56514;51.816;-0.026;2023-04-25T05:42:43;101189.78;;;3.42;71.51
69223;BME280;56514;51.816;-0.026;2023-04-25T05:45:28;101192.31;;;3.45;71.70
69223;BME280;56514;51.816;-0.026;2023-04-25T05:48:13;101202.44;;;3.54;71.01
69223;BME280;56514;51.816;-0.026;2023-04-25T05:50:57;101200.59;;;3.57;71.46
69223;BME280;56514;51.816;-0.026;2023-04-25T05:53:42;101198.66;;;3.64;71.45
69223;BME280;56514;51.816;-0.026;2023-04-25T05:56:27;101208.94;;;3.69;71.54
69223;BME280;56514;51.816;-0.026;2023-04-25T05:59:12;101212.19;;;3.75;71.39
69223;BME280;56514;51.816;-0.026;2023-04-25T06:01:57;101221.69;;;3.78;71.15
69223;BME280;56514;51.816;-0.026;2023-04-25T06:04:42;101218.88;;;3.84;71.21
69223;BME280;56514;51.816;-0.026;2023-04-25T06:07:27;101223.81;;;3.93;70.71
69223;BME280;56514;51.816;-0.026;2023-04-25T06:10:11;101213.31;;;3.94;70.89
69223;BME280;56514;51.816;-0.026;2023-04-25T06:12:56;101206.09;;;4.02;71.03
69223;BME280;56514;51.816;-0.026;2023-04-25T06:15:41;101204.91;;;4.11;70.69
69223;BME280;56514;51.816;-0.026;2023-04-25T06:18:46;101209.94;;;4.17;70.57
69223;BME280;56514;51.816;-0.026;2023-04-25T06:21:50;101218.41;;;4.23;69.96
69223;BME280;56514;51.816;-0.026;2023-04-25T06:24:59;101205.34;;;4.23;70.22
69223;BME280;56514;51.816;-0.026;2023-04-25T06:27:45;101205.91;;;4.31;70.23
69223;BME280;56514;51.816;-0.026;2023-04-25T06:30:30;101213.47;;;4.40;70.11
69223;BME280;56514;51.816;-0.026;2023-04-25T06:33:15;101220.81;;;4.54;69.99
69223;BME280;56514;51.816;-0.026;2023-04-25T06:36:00;101229.38;;;4.57;69.82
69223;BME280;56514;51.816;-0.026;2023-04-25T06:38:45;101223.72;;;4.69;69.09
69223;BME280;56514;51.816;-0.026;2023-04-25T06:41:30;101221.03;;;4.71;69.02
69223;BME280;56514;51.816;-0.026;2023-04-25T06:44:15;101229.41;;;4.80;68.92
69223;BME280;56514;51.816;-0.026;2023-04-25T06:46:59;101229.88;;;4.91;68.23
69223;BME280;56514;51.816;-0.026;2023-04-25T06:49:44;101213.28;;;4.92;68.12
69223;BME280;56514;51.816;-0.026;2023-04-25T06:52:29;101227.97;;;4.96;68.15
69223;BME280;56514;51.816;-0.026;2023-04-25T06:55:14;101222.50;;;5.02;68.08
69223;BME280;56514;51.816;-0.026;2023-04-25T06:57:59;101225.00;;;5.05;67.27
69223;BME280;56514;51.816;-0.026;2023-04-25T07:00:44;101238.72;;;5.10;67.62
69223;BME280;56514;51.816;-0.026;2023-04-25T07:03:29;101242.66;;;5.22;67.88
69223;BME280;56514;51.816;-0.026;2023-04-25T07:06:14;101235.28;;;5.33;67.03
69223;BME280;56514;51.816;-0.026;2023-04-25T07:09:00;101250.38;;;5.48;66.76
69223;BME280;56514;51.816;-0.026;2023-04-25T07:11:45;101250.03;;;5.57;66.92
69223;BME280;56514;51.816;-0.026;2023-04-25T07:14:30;101258.19;;;5.71;66.76
69223;BME280;56514;51.816;-0.026;2023-04-25T07:17:15;101249.69;;;5.88;65.78
69223;BME280;56514;51.816;-0.026;2023-04-25T07:20:00;101259.06;;;5.93;65.78
69223;BME280;56514;51.816;-0.026;2023-04-25T07:22:44;101271.72;;;6.04;65.78
69223;BME280;56514;51.816;-0.026;2023-04-25T07:25:29;101267.88;;;6.12;65.32
69223;BME280;56514;51.816;-0.026;2023-04-25T07:28:15;101264.00;;;6.21;65.26
69223;BME280;56514;51.816;-0.026;2023-04-25T07:31:28;101262.66;;;6.32;64.85
69223;BME280;56514;51.816;-0.026;2023-04-25T07:34:32;101265.28;;;6.52;64.35
69223;BME280;56514;51.816;-0.026;2023-04-25T07:37:41;101277.47;;;6.53;63.29
69223;BME280;56514;51.816;-0.026;2023-04-25T07:40:50;101278.38;;;6.52;63.65
69223;BME280;56514;51.816;-0.026;2023-04-25T07:43:58;101293.66;;;6.63;63.09
69223;BME280;56514;51.816;-0.026;2023-04-25T07:47:08;101293.53;;;6.66;63.07
69223;BME280;56514;51.816;-0.026;2023-04-25T07:50:17;101292.16;;;6.77;62.49
69223;BME280;56514;51.816;-0.026;2023-04-25T07:53:26;101287.25;;;6.90;62.79
69223;BME280;56514;51.816;-0.026;2023-04-25T07:56:35;101301.13;;;6.92;62.74
69223;BME280;56514;51.816;-0.026;2023-04-25T07:59:44;101294.69;;;6.99;61.90
69223;BME280;56514;51.816;-0.026;2023-04-25T08:02:54;101298.69;;;7.07;61.53
69223;BME280;56514;51.816;-0.026;2023-04-25T08:06:03;101298.41;;;7.13;61.46
69223;BME280;56514;51.816;-0.026;2023-04-25T08:09:13;101305.72;;;7.26;61.83
69223;BME280;56514;51.816;-0.026;2023-04-25T08:12:22;101314.03;;;7.35;61.27
69223;BME280;56514;51.816;-0.026;2023-04-25T08:15:31;101310.19;;;7.42;61.09
69223;BME280;56514;51.816;-0.026;2023-04-25T08:18:41;101317.72;;;7.50;61.04
69223;BME280;56514;51.816;-0.026;2023-04-25T08:21:26;101320.63;;;7.62;60.76
69223;BME280;56514;51.816;-0.026;2023-04-25T08:24:12;101320.50;;;7.65;60.83
69223;BME280;56514;51.816;-0.026;2023-04-25T08:26:57;101319.09;;;7.77;60.99
69223;BME280;56514;51.816;-0.026;2023-04-25T08:29:43;101326.41;;;7.89;60.13
69223;BME280;56514;51.816;-0.026;2023-04-25T08:32:28;101335.75;;;7.94;59.98
69223;BME280;56514;51.816;-0.026;2023-04-25T08:35:13;101328.81;;;7.93;59.30
69223;BME280;56514;51.816;-0.026;2023-04-25T08:37:58;101329.91;;;8.06;59.31
69223;BME280;56514;51.816;-0.026;2023-04-25T08:40:44;101334.63;;;8.17;59.72
69223;BME280;56514;51.816;-0.026;2023-04-25T08:43:29;101338.19;;;8.34;59.76
69223;BME280;56514;51.816;-0.026;2023-04-25T08:46:18;101342.69;;;8.49;58.55
69223;BME280;56514;51.816;-0.026;2023-04-25T08:49:03;101334.13;;;8.63;58.36
69223;BME280;56514;51.816;-0.026;2023-04-25T08:51:49;101331.72;;;8.75;58.07
69223;BME280;56514;51.816;-0.026;2023-04-25T08:54:37;101328.63;;;9.02;57.84
69223;BME280;56514;51.816;-0.026;2023-04-25T08:57:22;101336.34;;;9.05;56.48
69223;BME280;56514;51.816;-0.026;2023-04-25T09:00:09;101335.16;;;9.27;56.81
69223;BME280;56514;51.816;-0.026;2023-04-25T09:02:56;101329.69;;;9.47;55.26
69223;BME280;56514;51.816;-0.026;2023-04-25T09:05:41;101332.50;;;9.60;54.40
69223;BME280;56514;51.816;-0.026;2023-04-25T09:08:26;101335.56;;;9.99;54.03
69223;BME280;56514;51.816;-0.026;2023-04-25T09:11:12;101334.06;;;10.26;53.24
69223;BME280;56514;51.816;-0.026;2023-04-25T09:14:21;101335.16;;;10.37;52.55
69223;BME280;56514;51.816;-0.026;2023-04-25T09:17:07;101334.97;;;10.40;53.00
69223;BME280;56514;51.816;-0.026;2023-04-25T09:19:52;101335.69;;;10.58;51.30
69223;BME280;56514;51.816;-0.026;2023-04-25T09:22:38;101334.38;;;10.65;50.51
69223;BME280;56514;51.816;-0.026;2023-04-25T09:25:48;101337.28;;;10.60;49.69
69223;BME280;56514;51.816;-0.026;2023-04-25T09:29:07;101330.41;;;10.88;49.25
69223;BME280;56514;51.816;-0.026;2023-04-25T09:32:23;101333.13;;;10.86;48.68
69223;BME280;56514;51.816;-0.026;2023-04-25T09:35:39;101335.00;;;10.54;48.65
69223;BME280;56514;51.816;-0.026;2023-04-25T09:38:46;101338.34;;;10.42;49.06
69223;BME280;56514;51.816;-0.026;2023-04-25T09:41:55;101335.56;;;10.75;49.36
69223;BME280;56514;51.816;-0.026;2023-04-25T09:45:05;101332.88;;;11.05;47.97
69223;BME280;56514;51.816;-0.026;2023-04-25T09:48:22;101319.78;;;11.59;46.67
69223;BME280;56514;51.816;-0.026;2023-04-25T09:51:31;101321.78;;;12.10;44.77
69223;BME280;56514;51.816;-0.026;2023-04-25T09:54:40;101314.16;;;12.72;44.71
69223;BME280;56514;51.816;-0.026;2023-04-25T09:57:52;101319.94;;;13.28;44.73
69223;BME280;56514;51.816;-0.026;2023-04-25T10:01:05;101317.78;;;13.46;41.31
69223;BME280;56514;51.816;-0.026;2023-04-25T10:03:54;101318.25;;;13.15;40.59
69223;BME280;56514;51.816;-0.026;2023-04-25T10:06:42;101321.00;;;13.01;41.44
69223;BME280;56514;51.816;-0.026;2023-04-25T10:09:28;101315.69;;;13.01;41.42
69223;BME280;56514;51.816;-0.026;2023-04-25T10:12:19;101314.63;;;13.16;41.93
69223;BME280;56514;51.816;-0.026;2023-04-25T10:15:05;101309.63;;;13.49;41.75
69223;BME280;56514;51.816;-0.026;2023-04-25T10:17:51;101313.56;;;13.56;39.27
69223;BME280;56514;51.816;-0.026;2023-04-25T10:20:37;101306.16;;;13.36;38.73
69223;BME280;56514;51.816;-0.026;2023-04-25T10:23:23;101310.59;;;13.23;39.11
69223;BME280;56514;51.816;-0.026;2023-04-25T10:26:10;101318.03;;;13.18;40.41
69223;BME280;56514;51.816;-0.026;2023-04-25T10:29:02;101312.84;;;13.77;41.02
69223;BME280;56514;51.816;-0.026;2023-04-25T10:31:47;101321.81;;;14.36;39.88
69223;BME280;56514;51.816;-0.026;2023-04-25T10:34:43;101311.03;;;14.61;39.04
69223;BME280;56514;51.816;-0.026;2023-04-25T10:37:34;101316.81;;;14.90;39.56
69223;BME280;56514;51.816;-0.026;2023-04-25T10:40:22;101314.75;;;14.93;37.52
69223;BME280;56514;51.816;-0.026;2023-04-25T10:43:45;101320.56;;;14.29;37.62
69223;BME280;56514;51.816;-0.026;2023-04-25T10:46:32;101321.03;;;13.74;37.82
69223;BME280;56514;51.816;-0.026;2023-04-25T10:55:07;101315.22;;;12.82;38.97
69223;BME280;56514;51.816;-0.026;2023-04-25T10:57:53;101321.38;;;12.82;39.38
69223;BME280;56514;51.816;-0.026;2023-04-25T11:00:38;101313.53;;;12.81;39.75
69223;BME280;56514;51.816;-0.026;2023-04-25T11:03:24;101324.50;;;12.62;39.59
69223;BME280;56514;51.816;-0.026;2023-04-25T11:06:46;101324.38;;;12.64;38.10
69223;BME280;56514;51.816;-0.026;2023-04-25T11:10:04;101317.94;;;13.07;38.32
69223;BME280;56514;51.816;-0.026;2023-04-25T11:13:10;101323.41;;;14.02;38.69
69223;BME280;56514;51.816;-0.026;2023-04-25T11:16:16;101326.13;;;14.95;36.92
69223;BME280;56514;51.816;-0.026;2023-04-25T11:19:23;101317.59;;;15.25;36.58
69223;BME280;56514;51.816;-0.026;2023-04-25T11:22:33;101332.81;;;14.77;33.62
69223;BME280;56514;51.816;-0.026;2023-04-25T11:25:42;101334.06;;;14.50;36.14
69223;BME280;56514;51.816;-0.026;2023-04-25T11:28:57;101318.22;;;14.48;36.13
69223;BME280;56514;51.816;-0.026;2023-04-25T11:32:08;101321.00;;;14.70;37.34
69223;BME280;56514;51.816;-0.026;2023-04-25T11:35:21;101314.84;;;15.37;36.28
69223;BME280;56514;51.816;-0.026;2023-04-25T11:38:32;101301.84;;;16.42;35.39
69223;BME280;56514;51.816;-0.026;2023-04-25T11:41:42;101296.28;;;17.48;33.93
69223;BME280;56514;51.816;-0.026;2023-04-25T11:44:51;101300.13;;;17.64;32.13
69223;BME280;56514;51.816;-0.026;2023-04-25T11:48:01;101293.44;;;17.19;31.19
69223;BME280;56514;51.816;-0.026;2023-04-25T11:50:46;101304.03;;;16.48;31.77
69223;BME280;56514;51.816;-0.026;2023-04-25T11:53:31;101304.91;;;15.95;32.93
69223;BME280;56514;51.816;-0.026;2023-04-25T11:56:16;101300.56;;;15.94;34.34
69223;BME280;56514;51.816;-0.026;2023-04-25T11:59:03;101317.75;;;15.56;32.49
69223;BME280;56514;51.816;-0.026;2023-04-25T12:01:49;101310.94;;;15.08;32.86
69223;BME280;56514;51.816;-0.026;2023-04-25T12:04:40;101324.16;;;14.86;34.34
69223;BME280;56514;51.816;-0.026;2023-04-25T12:07:29;101317.63;;;14.79;33.83
69223;BME280;56514;51.816;-0.026;2023-04-25T12:10:16;101318.66;;;15.00;34.65
69223;BME280;56514;51.816;-0.026;2023-04-25T12:13:23;101311.22;;;15.71;34.16
69223;BME280;56514;51.816;-0.026;2023-04-25T12:16:09;101322.59;;;16.27;30.97
69223;BME280;56514;51.816;-0.026;2023-04-25T12:18:55;101321.25;;;16.64;30.72
69223;BME280;56514;51.816;-0.026;2023-04-25T12:21:42;101324.91;;;17.25;31.60
69223;BME280;56514;51.816;-0.026;2023-04-25T12:24:27;101326.19;;;17.51;30.79
69223;BME280;56514;51.816;-0.026;2023-04-25T12:27:14;101339.53;;;17.51;31.19
69223;BME280;56514;51.816;-0.026;2023-04-25T12:30:03;101332.47;;;16.79;29.71
69223;BME280;56514;51.816;-0.026;2023-04-25T12:32:49;101336.38;;;16.32;30.51
69223;BME280;56514;51.816;-0.026;2023-04-25T12:35:33;101341.63;;;16.12;30.86
69223;BME280;56514;51.816;-0.026;2023-04-25T12:38:25;101337.09;;;15.80;31.25
69223;BME280;56514;51.816;-0.026;2023-04-25T12:41:10;101332.97;;;15.88;31.38
69223;BME280;56514;51.816;-0.026;2023-04-25T12:43:55;101325.91;;;16.09;28.94
69223;BME280;56514;51.816;-0.026;2023-04-25T12:46:41;101327.84;;;16.07;28.51
69223;BME280;56514;51.816;-0.026;2023-04-25T12:49:26;101320.97;;;16.78;30.55
69223;BME280;56514;51.816;-0.026;2023-04-25T12:52:32;101324.09;;;17.94;28.78
69223;BME280;56514;51.816;-0.026;2023-04-25T12:55:36;101319.78;;;18.12;28.52
69223;BME280;56514;51.816;-0.026;2023-04-25T12:58:41;101321.06;;;18.08;27.92
69223;BME280;56514;51.816;-0.026;2023-04-25T13:01:48;101322.72;;;18.09;29.62
69223;BME280;56514;51.816;-0.026;2023-04-25T13:04:57;101334.28;;;18.29;29.56
69223;BME280;56514;51.816;-0.026;2023-04-25T13:08:06;101337.03;;;17.99;27.47
69223;BME280;56514;51.816;-0.026;2023-04-25T13:11:16;101338.38;;;17.44;28.68
69223;BME280;56514;51.816;-0.026;2023-04-25T13:14:25;101332.84;;;19.20;26.30
69223;BME280;56514;51.816;-0.026;2023-04-25T13:17:34;101334.34;;;20.15;25.92
69223;BME280;56514;51.816;-0.026;2023-04-25T13:20:43;101333.34;;;20.86;24.99
69223;BME280;56514;51.816;-0.026;2023-04-25T13:23:53;101337.69;;;20.61;24.32
69223;BME280;56514;51.816;-0.026;2023-04-25T13:26:38;101333.09;;;20.09;25.15
69223;BME280;56514;51.816;-0.026;2023-04-25T13:29:22;101337.25;;;19.67;25.61
69223;BME280;56514;51.816;-0.026;2023-04-25T13:32:09;101334.78;;;19.83;26.32
69223;BME280;56514;51.816;-0.026;2023-04-25T13:34:54;101334.59;;;20.39;26.25
69223;BME280;56514;51.816;-0.026;2023-04-25T13:37:40;101333.69;;;20.65;25.66
69223;BME280;56514;51.816;-0.026;2023-04-25T13:40:26;101332.78;;;20.39;25.60
69223;BME280;56514;51.816;-0.026;2023-04-25T13:43:14;101328.78;;;19.99;26.26
69223;BME280;56514;51.816;-0.026;2023-04-25T13:45:59;101340.47;;;19.71;25.65
69223;BME280;56514;51.816;-0.026;2023-04-25T13:48:43;101336.75;;;19.54;27.35
69223;BME280;56514;51.816;-0.026;2023-04-25T13:51:31;101335.09;;;19.44;26.49
69223;BME280;56514;51.816;-0.026;2023-04-25T13:54:16;101345.53;;;19.37;26.97
69223;BME280;56514;51.816;-0.026;2023-04-25T13:57:01;101342.13;;;19.45;27.29
69223;BME280;56514;51.816;-0.026;2023-04-25T13:59:46;101345.91;;;19.52;25.30
69223;BME280;56514;51.816;-0.026;2023-04-25T14:02:31;101350.25;;;18.87;25.82
69223;BME280;56514;51.816;-0.026;2023-04-25T14:05:16;101341.09;;;18.71;25.94
69223;BME280;56514;51.816;-0.026;2023-04-25T14:08:01;101342.22;;;18.78;26.81
69223;BME280;56514;51.816;-0.026;2023-04-25T14:10:46;101348.69;;;18.66;25.69
69223;BME280;56514;51.816;-0.026;2023-04-25T14:13:30;101341.59;;;18.17;25.63
69223;BME280;56514;51.816;-0.026;2023-04-25T14:16:16;101336.59;;;17.84;24.92
69223;BME280;56514;51.816;-0.026;2023-04-25T14:19:01;101337.03;;;17.99;26.01
69223;BME280;56514;51.816;-0.026;2023-04-25T14:21:46;101332.72;;;19.41;24.77
69223;BME280;56514;51.816;-0.026;2023-04-25T14:24:31;101336.78;;;21.98;21.48
69223;BME280;56514;51.816;-0.026;2023-04-25T14:27:40;101334.41;;;23.49;21.44
69223;BME280;56514;51.816;-0.026;2023-04-25T14:30:46;101340.59;;;24.66;18.87
69223;BME280;56514;51.816;-0.026;2023-04-25T14:33:51;101335.47;;;24.26;20.20
69223;BME280;56514;51.816;-0.026;2023-04-25T14:36:57;101341.28;;;26.15;17.28
69223;BME280;56514;51.816;-0.026;2023-04-25T14:40:04;101329.38;;;28.96;16.31
69223;BME280;56514;51.816;-0.026;2023-04-25T14:43:14;101337.78;;;31.53;15.35
69223;BME280;56514;51.816;-0.026;2023-04-25T14:46:20;101319.25;;;33.79;12.17
69223;BME280;56514;51.816;-0.026;2023-04-25T14:49:32;101318.56;;;33.72;13.18
69223;BME280;56514;51.816;-0.026;2023-04-25T14:52:41;101320.47;;;34.51;10.74
69223;BME280;56514;51.816;-0.026;2023-04-25T14:55:50;101311.72;;;33.98;11.03
69223;BME280;56514;51.816;-0.026;2023-04-25T14:58:59;101324.00;;;30.37;12.76
69223;BME280;56514;51.816;-0.026;2023-04-25T15:02:08;101324.94;;;27.28;14.55
69223;BME280;56514;51.816;-0.026;2023-04-25T15:05:17;101330.75;;;24.95;16.08
69223;BME280;56514;51.816;-0.026;2023-04-25T15:08:27;101338.31;;;22.91;17.51